Time;durP1;ratioP1;P1;durP2;ratioP2;P2;SDS_P1;SDS_P2;PMS_P1;PMS_P2;Temp;Humidity;BMP_temperature;BMP_pressure;BME280_temperature;BME280_humidity;BME280_pressure;Samples;Min_cycle;Max_cycle;Signal;HPM_P1;HPM_P2
2022/10/20 00:01:15;;;;;;;;;;;;;;;12.85;99.18;99406.66;8285921;28;19933;-78
2022/10/20 00:05:16;;;;;;;;;;;;;;;12.84;99.04;99405.81;8322356;28;19954;-77
2022/10/20 00:09:18;;;;;;;;;;;;;;;12.82;99.43;99402.34;8305379;28;19940;-78
2022/10/20 00:13:19;;;;;;;;;;;;;;;12.79;99.53;99401.53;8310798;28;20510;-78
2022/10/20 00:17:20;;;;;;;;;;;;;;;12.79;99.60;99391.97;8331536;28;19931;-78
2022/10/20 00:21:23;;;;;;;;;;;;;;;12.79;99.46;99402.41;8309199;28;20381;-78
2022/10/20 00:25:25;;;;;;;;;;;;;;;12.80;99.77;99392.84;8292916;28;19992;-78
2022/10/20 00:29:26;;;;;;;;;;;;;;;12.81;99.69;99390.22;8313660;28;20332;-78
2022/10/20 00:33:27;;;;;;;;;;;;;;;12.78;99.54;99371.16;8312062;28;19995;-78
2022/10/20 00:37:29;;;;;;;;;;;;;;;12.75;99.55;99379.88;8333954;28;20020;-78
2022/10/20 00:41:31;;;;;;;;;;;;;;;12.77;99.81;99374.66;8316453;28;19937;-77
2022/10/20 00:45:32;;;;;;;;;;;;;;;12.79;100.00;99375.47;8336137;28;19929;-78
2022/10/20 00:49:33;;;;;;;;;;;;;;;12.78;99.89;99379.84;8316724;28;19986;-78
2022/10/20 00:53:35;;;;;;;;;;;;;;;12.79;99.82;99376.34;8315395;28;20585;-78
2022/10/20 00:57:36;;;;;;;;;;;;;;;12.79;99.49;99365.94;8325650;28;19929;-77
2022/10/20 01:01:40;;;;;;;;;;;;;;;12.77;99.74;99362.47;8341056;28;19936;-78
2022/10/20 01:05:41;;;;;;;;;;;;;;;12.77;99.52;99361.63;8332745;28;19937;-78
2022/10/20 01:09:43;;;;;;;;;;;;;;;12.80;99.78;99374.59;8309556;28;19991;-78
2022/10/20 01:13:55;;;;;;;;;;;;;;;12.79;99.81;99354.66;8307682;28;19937;-78
2022/10/20 01:18:12;;;;;;;;;;;;;;;12.80;99.12;99357.22;8333219;28;19928;-78
2022/10/20 01:22:32;;;;;;;;;;;;;;;12.78;99.58;99353.78;8311843;28;20618;-78
2022/10/20 01:26:49;;;;;;;;;;;;;;;12.80;99.43;99359.84;8292575;28;19933;-78
2022/10/20 01:30:55;;;;;;;;;;;;;;;12.81;99.07;99368.50;8328460;28;19932;-78
2022/10/20 01:34:57;;;;;;;;;;;;;;;12.81;99.44;99371.13;8332945;28;19929;-78
2022/10/20 01:39:01;;;;;;;;;;;;;;;12.81;99.43;99376.31;8322449;28;19959;-78
2022/10/20 01:43:05;;;;;;;;;;;;;;;12.79;98.99;99359.84;8310689;28;19948;-77
2022/10/20 01:47:08;;;;;;;;;;;;;;;12.80;99.42;99361.56;8334614;28;19932;-78
2022/10/20 01:51:09;;;;;;;;;;;;;;;12.78;98.92;99355.53;8305955;28;20443;-78
2022/10/20 01:55:15;;;;;;;;;;;;;;;12.79;99.70;99352.03;8314678;28;19929;-78
2022/10/20 01:59:28;;;;;;;;;;;;;;;12.79;99.30;99345.09;8335700;28;19933;-78
2022/10/20 02:03:44;;;;;;;;;;;;;;;12.78;99.55;99340.75;8305895;28;19932;-77
2022/10/20 02:07:45;;;;;;;;;;;;;;;12.77;99.33;99328.59;8316772;28;19937;-77
2022/10/20 02:11:46;;;;;;;;;;;;;;;12.78;98.90;99300.81;8334970;28;19929;-78
2022/10/20 02:15:59;;;;;;;;;;;;;;;12.76;98.92;99310.41;8299187;28;19946;-78
2022/10/20 02:20:03;;;;;;;;;;;;;;;12.74;98.92;99302.56;8321735;28;19944;-78
2022/10/20 02:24:06;;;;;;;;;;;;;;;12.73;98.56;99292.19;8332105;28;20400;-78
2022/10/20 02:28:09;;;;;;;;;;;;;;;12.73;98.88;99294.78;8338199;28;19929;-78
2022/10/20 02:32:11;;;;;;;;;;;;;;;12.69;99.02;99280.94;8303751;28;20285;-78
2022/10/20 02:36:16;;;;;;;;;;;;;;;12.69;99.07;99287.00;8284544;28;19929;-78
2022/10/20 02:40:18;;;;;;;;;;;;;;;12.68;98.74;99279.22;8282219;28;19929;-77
2022/10/20 02:44:19;;;;;;;;;;;;;;;12.68;98.97;99274.03;8289173;28;19929;-78
2022/10/20 02:48:20;;;;;;;;;;;;;;;12.64;99.14;99278.41;8279145;28;19987;-78
2022/10/20 02:52:22;;;;;;;;;;;;;;;12.65;98.41;99266.25;8284570;28;19929;-77
2022/10/20 02:56:23;;;;;;;;;;;;;;;12.64;98.94;99262.78;8306837;28;19955;-78
2022/10/20 03:00:30;;;;;;;;;;;;;;;12.65;98.61;99264.50;8261258;28;19925;-78
2022/10/20 03:04:32;;;;;;;;;;;;;;;12.65;99.32;99258.44;8280903;28;20663;-78
2022/10/20 03:08:33;;;;;;;;;;;;;;;12.62;98.72;99248.06;8285744;28;19929;-77
2022/10/20 03:12:34;;;;;;;;;;;;;;;12.62;98.35;99241.13;8285868;28;19929;-77
2022/10/20 03:16:36;;;;;;;;;;;;;;;12.59;98.70;99241.16;8278830;28;19944;-78
2022/10/20 03:20:37;;;;;;;;;;;;;;;12.56;99.26;99235.97;8311085;28;19932;-77
2022/10/20 03:24:39;;;;;;;;;;;;;;;12.54;99.13;99232.53;8264776;28;19929;-77
2022/10/20 03:28:40;;;;;;;;;;;;;;;12.53;98.97;99233.44;8280209;28;19925;-77
2022/10/20 03:32:41;;;;;;;;;;;;;;;12.53;98.70;99232.56;8279246;28;19933;-78
2022/10/20 03:36:43;;;;;;;;;;;;;;;12.55;99.20;99251.63;8262545;28;19940;-78
2022/10/20 03:40:44;;;;;;;;;;;;;;;12.54;99.17;99236.88;8279709;28;20329;-78
2022/10/20 03:44:45;;;;;;;;;;;;;;;12.55;98.83;99230.78;8277189;28;20425;-77
2022/10/20 03:48:47;;;;;;;;;;;;;;;12.53;98.79;99241.25;8290668;28;20016;-77
2022/10/20 03:52:49;;;;;;;;;;;;;;;12.54;98.50;99255.13;8280131;28;19988;-78
2022/10/20 03:56:50;;;;;;;;;;;;;;;12.53;98.32;99254.25;8283354;28;19929;-78
2022/10/20 04:00:52;;;;;;;;;;;;;;;12.52;98.63;99246.47;8274184;28;19934;-78
2022/10/20 04:04:54;;;;;;;;;;;;;;;12.51;98.40;99234.34;8283372;28;19967;-78
2022/10/20 04:08:55;;;;;;;;;;;;;;;12.48;97.85;99231.78;8275348;28;19925;-78
2022/10/20 04:12:57;;;;;;;;;;;;;;;12.45;97.79;99231.84;8278421;28;19976;-77
2022/10/20 04:16:59;;;;;;;;;;;;;;;12.42;97.70;99227.53;8267153;28;19977;-78
2022/10/20 04:21:00;;;;;;;;;;;;;;;12.39;98.28;99232.78;8286055;28;19961;-78
2022/10/20 04:25:02;;;;;;;;;;;;;;;12.37;98.30;99231.91;8315301;28;19935;-78
2022/10/20 04:29:03;;;;;;;;;;;;;;;12.35;98.48;99234.56;8277945;28;19929;-77
2022/10/20 04:33:05;;;;;;;;;;;;;;;12.35;98.18;99228.47;8287172;28;19934;-77
2022/10/20 04:37:06;;;;;;;;;;;;;;;12.34;97.91;99234.56;8292989;28;19936;-77
2022/10/20 04:41:09;;;;;;;;;;;;;;;12.33;98.35;99245.88;8303552;28;19930;-77
2022/10/20 04:45:10;;;;;;;;;;;;;;;12.31;98.13;99247.63;8267267;28;19991;-77
2022/10/20 04:49:11;;;;;;;;;;;;;;;12.29;98.42;99252.88;8289008;28;19929;-78
2022/10/20 04:53:12;;;;;;;;;;;;;;;12.30;97.90;99277.16;8288121;28;20309;-78
2022/10/20 04:57:14;;;;;;;;;;;;;;;12.27;98.18;99280.66;8286736;28;19930;-78
2022/10/20 05:01:15;;;;;;;;;;;;;;;12.26;98.63;99265.06;8280475;28;19992;-77
2022/10/20 05:05:17;;;;;;;;;;;;;;;12.27;99.09;99248.56;8275542;28;19940;-78
2022/10/20 05:09:18;;;;;;;;;;;;;;;12.25;99.10;99258.16;8275177;28;19929;-78
2022/10/20 05:13:20;;;;;;;;;;;;;;;12.25;99.20;99242.53;8283334;28;19933;-78
2022/10/20 05:17:21;;;;;;;;;;;;;;;12.22;98.82;99230.41;8294805;28;19929;-78
2022/10/20 05:21:24;;;;;;;;;;;;;;;12.21;98.43;99227.81;8283093;28;19929;-78
2022/10/20 05:25:25;;;;;;;;;;;;;;;12.20;98.67;99215.69;8274700;28;19929;-78
2022/10/20 05:29:41;;;;;;;;;;;;;;;12.18;98.31;99210.50;8284797;28;19972;-77
2022/10/20 05:33:45;;;;;;;;;;;;;;;12.17;98.64;99203.56;8301754;28;19929;-78
2022/10/20 05:37:46;;;;;;;;;;;;;;;12.18;98.86;99209.63;8338638;28;19929;-77
2022/10/20 05:41:48;;;;;;;;;;;;;;;12.17;99.07;99194.91;8317620;28;19929;-78
2022/10/20 05:45:52;;;;;;;;;;;;;;;12.19;98.89;99203.53;8297365;28;19932;-77
2022/10/20 05:49:53;;;;;;;;;;;;;;;12.18;98.35;99187.06;8303775;28;20449;-77
2022/10/20 05:53:56;;;;;;;;;;;;;;;12.20;98.63;99195.72;8318086;28;20330;-78
2022/10/20 05:57:57;;;;;;;;;;;;;;;12.21;99.12;99183.56;8314635;28;20076;-77
2022/10/20 06:01:58;;;;;;;;;;;;;;;12.22;98.47;99185.31;8306239;28;19925;-77
2022/10/20 06:06:00;;;;;;;;;;;;;;;12.20;98.73;99177.50;8314594;28;20027;-78
2022/10/20 06:10:02;;;;;;;;;;;;;;;12.22;99.31;99183.56;8299591;28;19929;-78
2022/10/20 06:14:04;;;;;;;;;;;;;;;12.20;99.09;99187.91;8316112;28;19943;-78
2022/10/20 06:18:05;;;;;;;;;;;;;;;12.22;98.58;99191.38;8321903;28;19929;-78
2022/10/20 06:22:06;;;;;;;;;;;;;;;12.24;98.71;99188.75;8341310;28;19936;-78
2022/10/20 06:26:12;;;;;;;;;;;;;;;12.28;99.42;99191.28;8318187;28;19987;-78
2022/10/20 06:30:14;;;;;;;;;;;;;;;12.30;98.92;99191.25;8318075;28;19929;-77
2022/10/20 06:34:17;;;;;;;;;;;;;;;12.32;99.38;99192.94;8315689;28;19929;-77
2022/10/20 06:38:18;;;;;;;;;;;;;;;12.35;99.06;99195.50;8329036;28;19929;-77
2022/10/20 06:42:20;;;;;;;;;;;;;;;12.37;98.84;99185.06;8320934;28;19940;-78
2022/10/20 06:46:21;;;;;;;;;;;;;;;12.40;99.30;99211.06;8307438;28;20359;-77
2022/10/20 06:50:22;;;;;;;;;;;;;;;12.46;98.90;99215.31;8294470;28;19986;-77
2022/10/20 06:54:24;;;;;;;;;;;;;;;12.49;98.57;99216.13;8306801;28;20053;-77
2022/10/20 06:58:25;;;;;;;;;;;;;;;12.54;98.60;99224.72;8309443;28;19929;-78
2022/10/20 07:02:27;;;;;;;;;;;;;;;12.60;99.21;99234.22;8303506;28;20003;-78
2022/10/20 07:06:30;;;;;;;;;;;;;;;12.66;99.41;99228.91;8332761;28;19929;-78
2022/10/20 07:10:31;;;;;;;;;;;;;;;12.73;99.30;99225.31;8286872;28;19990;-78
2022/10/20 07:14:36;;;;;;;;;;;;;;;12.80;99.39;99223.47;8293614;28;19991;-78
2022/10/20 07:18:37;;;;;;;;;;;;;;;12.85;98.42;99208.63;8305130;28;19929;-77
2022/10/20 07:22:38;;;;;;;;;;;;;;;12.89;98.20;99215.50;8309063;28;19964;-78
2022/10/20 07:26:40;;;;;;;;;;;;;;;12.94;97.97;99209.34;8309111;28;19933;-77
2022/10/20 07:30:42;;;;;;;;;;;;;;;13.01;97.60;99204.88;8308181;28;20482;-77
2022/10/20 07:34:43;;;;;;;;;;;;;;;13.02;96.73;99230.91;8300197;28;19928;-78
2022/10/20 07:38:45;;;;;;;;;;;;;;;13.08;96.91;99222.13;8318830;28;19939;-77
2022/10/20 07:42:47;;;;;;;;;;;;;;;13.13;96.79;99216.84;8314917;28;20324;-77
2022/10/20 07:46:48;;;;;;;;;;;;;;;13.18;96.98;99234.16;8313463;28;20572;-77
2022/10/20 07:50:50;;;;;;;;;;;;;;;13.24;96.45;99228.81;8342676;28;19929;-77
2022/10/20 07:54:51;;;;;;;;;;;;;;;13.30;96.16;99239.16;8342487;28;20436;-77
2022/10/20 07:59:13;;;;;;;;;;;;;;;13.39;96.27;99245.94;8318151;28;19928;-77
2022/10/20 08:03:14;;;;;;;;;;;;;;;13.46;95.73;99262.31;8324580;28;20012;-77
2022/10/20 08:07:16;;;;;;;;;;;;;;;13.52;95.22;99259.63;8303338;28;20028;-78
2022/10/20 08:11:17;;;;;;;;;;;;;;;13.55;94.76;99250.00;8339097;28;20530;-77
2022/10/20 08:15:18;;;;;;;;;;;;;;;13.64;94.70;99251.56;8318353;28;19990;-78
2022/10/20 08:19:20;;;;;;;;;;;;;;;13.70;94.75;99248.84;8332669;28;19938;-76
2022/10/20 08:23:41;;;;;;;;;;;;;;;13.76;94.62;99253.94;8249599;28;19945;-76
2022/10/20 08:27:42;;;;;;;;;;;;;;;13.83;94.38;99254.69;8237315;28;19944;-78
2022/10/20 08:31:44;;;;;;;;;;;;;;;13.89;94.11;99252.81;8240426;28;19944;-76
2022/10/20 08:35:45;;;;;;;;;;;;;;;13.96;93.63;99240.47;8239594;28;20258;-78
2022/10/20 08:39:46;;;;;;;;;;;;;;;14.06;93.33;99230.72;8256603;28;20027;-77
2022/10/20 08:43:49;;;;;;;;;;;;;;;14.23;93.06;99236.44;8236380;28;19929;-78
2022/10/20 08:47:52;;;;;;;;;;;;;;;14.37;91.95;99225.72;8211601;28;20442;-77
2022/10/20 08:51:54;;;;;;;;;;;;;;;14.49;91.25;99225.44;8227280;28;20045;-78
2022/10/20 08:55:55;;;;;;;;;;;;;;;14.51;90.53;99234.94;8236325;28;19938;-78
2022/10/20 09:00:17;;;;;;;;;;;;;;;14.55;90.30;99242.75;8281206;28;20291;-78
2022/10/20 09:04:37;;;;;;;;;;;;;;;14.63;90.10;99248.66;8315575;28;20040;-78
2022/10/20 09:08:39;;;;;;;;;;;;;;;14.72;90.50;99235.34;8327760;28;19995;-77
2022/10/20 09:12:42;;;;;;;;;;;;;;;14.85;90.32;99202.78;8309701;28;20032;-78
2022/10/20 09:16:45;;;;;;;;;;;;;;;14.91;89.84;99207.03;8327386;28;19929;-78
2022/10/20 09:21:04;;;;;;;;;;;;;;;14.89;89.49;99212.28;8297942;28;20425;-78
2022/10/20 09:25:05;;;;;;;;;;;;;;;14.84;90.01;99226.38;8297344;28;20320;-77
2022/10/20 09:29:11;;;;;;;;;;;;;;;14.79;90.49;99224.72;8304137;28;20750;-77
2022/10/20 09:33:21;;;;;;;;;;;;;;;14.80;91.29;99226.44;8300118;28;19940;-77
2022/10/20 09:37:22;;;;;;;;;;;;;;;14.77;90.52;99230.91;8279158;28;19933;-77
2022/10/20 09:41:25;;;;;;;;;;;;;;;14.80;91.12;99229.06;8270877;28;19929;-78
2022/10/20 09:45:28;;;;;;;;;;;;;;;14.85;91.77;99223.72;8264456;28;19929;-77
2022/10/20 09:49:36;;;;;;;;;;;;;;;14.90;92.02;99218.34;8279272;28;19937;-77
2022/10/20 09:53:57;;;;;;;;;;;;;;;14.97;92.09;99220.81;8291847;28;19944;-77
2022/10/20 09:58:00;;;;;;;;;;;;;;;15.08;92.27;99226.63;8281101;28;19929;-78
2022/10/20 10:02:14;;;;;;;;;;;;;;;15.18;91.94;99218.53;8271906;28;19930;-78
2022/10/20 10:06:27;;;;;;;;;;;;;;;15.25;91.32;99223.56;8275221;28;19992;-78
2022/10/20 10:10:30;;;;;;;;;;;;;;;15.34;90.82;99222.47;8286221;28;20145;-78
2022/10/20 10:14:32;;;;;;;;;;;;;;;15.41;91.14;99205.69;8274849;28;20520;-78
2022/10/20 10:18:34;;;;;;;;;;;;;;;15.49;91.14;99205.50;8283013;28;20039;-78
2022/10/20 10:22:36;;;;;;;;;;;;;;;15.51;90.75;99212.41;8270436;28;20013;-78
2022/10/20 10:26:54;;;;;;;;;;;;;;;15.54;90.44;99233.25;8274851;28;20358;-78
2022/10/20 10:31:06;;;;;;;;;;;;;;;15.48;90.27;99238.66;8277792;28;19932;-78
2022/10/20 10:35:26;;;;;;;;;;;;;;;15.34;91.82;99240.78;8277650;28;19925;-78
2022/10/20 10:39:28;;;;;;;;;;;;;;;15.36;93.02;99233.75;8277862;28;19937;-78
2022/10/20 10:43:44;;;;;;;;;;;;;;;15.42;93.57;99236.19;8278243;28;20266;-78
2022/10/20 10:47:52;;;;;;;;;;;;;;;15.51;93.72;99230.72;8265690;28;20043;-78
2022/10/20 10:51:59;;;;;;;;;;;;;;;15.62;94.09;99225.25;8272737;28;20434;-79
2022/10/20 10:56:07;;;;;;;;;;;;;;;15.66;94.01;99209.41;8266375;28;19930;-79
2022/10/20 11:00:12;;;;;;;;;;;;;;;15.67;93.58;99191.94;8276428;28;19940;-78
2022/10/20 11:04:14;;;;;;;;;;;;;;;15.66;92.64;99200.72;8247354;28;19995;-79
2022/10/20 11:08:22;;;;;;;;;;;;;;;15.67;92.67;99174.47;8246186;28;19930;-79
2022/10/20 11:12:35;;;;;;;;;;;;;;;15.76;93.46;99170.72;8277501;28;20661;-79
2022/10/20 11:16:42;;;;;;;;;;;;;;;15.89;93.71;99164.25;8267603;28;19930;-78
2022/10/20 11:20:53;;;;;;;;;;;;;;;16.00;93.50;99161.31;8260384;28;19960;-78
2022/10/20 11:25:10;;;;;;;;;;;;;;;16.09;93.12;99166.25;8259293;28;19925;-78
2022/10/20 11:29:15;;;;;;;;;;;;;;;16.11;92.73;99155.72;8289987;22;20297;-77
2022/10/20 11:33:43;;;;;;;;;;;;;;;16.09;92.13;99141.81;10088473;23;19940;-81
2022/10/20 11:38:06;;;;;;;;;;;;;;;16.10;93.04;99147.00;8305397;28;19947;-81
2022/10/20 11:42:22;;;;;;;;;;;;;;;16.16;93.30;99148.63;8299713;28;20341;-81
2022/10/20 11:46:30;;;;;;;;;;;;;;;16.22;92.85;99151.88;8320607;28;19929;-81
2022/10/20 11:50:33;;;;;;;;;;;;;;;16.26;92.99;99157.88;8290472;28;19940;-81
2022/10/20 11:54:41;;;;;;;;;;;;;;;16.33;92.70;99151.53;8308684;28;20391;-81
2022/10/20 11:58:42;;;;;;;;;;;;;;;16.41;93.20;99146.06;8308687;28;20365;-81
2022/10/20 12:02:47;;;;;;;;;;;;;;;16.44;92.22;99141.56;8300826;28;20004;-82
2022/10/20 12:06:54;;;;;;;;;;;;;;;16.49;91.99;99149.28;8338606;28;19960;-81
2022/10/20 12:11:02;;;;;;;;;;;;;;;16.55;92.32;99147.34;8312537;28;19980;-81
2022/10/20 12:15:17;;;;;;;;;;;;;;;16.60;91.61;99142.78;8329832;28;19910;-81
2022/10/20 12:19:24;;;;;;;;;;;;;;;16.72;92.16;99138.09;8341832;28;19929;-81
2022/10/20 12:23:52;;;;;;;;;;;;;;;16.75;91.99;99144.09;8312355;28;19955;-81
2022/10/20 12:28:12;;;;;;;;;;;;;;;16.78;91.24;99143.13;8300613;28;19925;-81
2022/10/20 12:32:32;;;;;;;;;;;;;;;16.81;91.38;99140.41;8330678;28;20421;-81
2022/10/20 12:36:36;;;;;;;;;;;;;;;16.80;92.16;99128.19;8279937;28;20283;-81
2022/10/20 12:40:47;;;;;;;;;;;;;;;16.74;92.65;99137.13;8284409;28;20051;-81
2022/10/20 12:44:49;;;;;;;;;;;;;;;16.65;93.52;99137.41;8296221;28;19980;-81
2022/10/20 12:48:58;;;;;;;;;;;;;;;16.58;94.66;99133.28;8279083;28;19940;-81
2022/10/20 14:08:14;;;;;;;;;;;;;;;16.77;100.00;99068.00;8370093;24;19934;-80
2022/10/20 14:12:28;;;;;;;;;;;;;;;16.78;100.00;99080.19;7870838;30;20427;-81
2022/10/20 14:16:56;;;;;;;;;;;;;;;16.83;100.00;99073.00;7873304;30;20356;-81
2022/10/20 15:13:40;;;;;;;;;;;;;;;16.78;100.00;99030.38;10472123;22;19928;-80
2022/10/20 15:18:07;;;;;;;;;;;;;;;16.79;100.00;99018.97;10248039;23;19924;-78
2022/10/20 15:22:32;;;;;;;;;;;;;;;16.78;100.00;99026.00;10237159;23;19998;-79
2022/10/20 15:31:49;;;;;;;;;;;;;;;16.71;100.00;99007.91;10212178;23;19924;-79
2022/10/20 15:36:18;;;;;;;;;;;;;;;16.68;100.00;99015.88;10220682;23;20228;-78
2022/10/20 15:40:29;;;;;;;;;;;;;;;16.65;100.00;99014.19;10224280;23;20002;-78
2022/10/20 15:44:54;;;;;;;;;;;;;;;16.60;100.00;99003.88;10217852;23;19959;-78
2022/10/20 15:49:02;;;;;;;;;;;;;;;16.59;100.00;98996.06;10202193;23;19979;-77
2022/10/20 15:53:18;;;;;;;;;;;;;;;16.56;100.00;98990.94;10221825;23;19959;-77
2022/10/20 15:57:20;;;;;;;;;;;;;;;16.51;100.00;98988.44;10222748;23;19928;-77
2022/10/20 16:01:21;;;;;;;;;;;;;;;16.46;100.00;98982.50;10190285;23;20009;-77
2022/10/20 16:05:24;;;;;;;;;;;;;;;16.41;100.00;98978.34;10221372;23;19939;-77
2022/10/20 16:09:25;;;;;;;;;;;;;;;16.36;100.00;98975.03;10222269;23;19924;-77
2022/10/20 16:13:27;;;;;;;;;;;;;;;16.28;100.00;98973.53;10235765;23;19951;-78
2022/10/20 16:17:28;;;;;;;;;;;;;;;16.25;100.00;98970.16;10239588;23;19928;-77
2022/10/20 16:21:30;;;;;;;;;;;;;;;16.20;100.00;98966.84;10274179;23;19924;-78
2022/10/20 16:25:31;;;;;;;;;;;;;;;16.13;100.00;98968.78;10248503;23;19928;-78
2022/10/20 16:29:33;;;;;;;;;;;;;;;16.07;100.00;98955.91;10249721;23;19940;-78
2022/10/20 16:33:34;;;;;;;;;;;;;;;16.01;100.00;98964.00;10267521;23;19932;-78
2022/10/20 16:37:35;;;;;;;;;;;;;;;15.94;100.00;98979.03;10249349;23;19920;-80
2022/10/20 16:41:37;;;;;;;;;;;;;;;15.89;100.00;98973.09;10225928;23;19935;-78
2022/10/20 16:45:39;;;;;;;;;;;;;;;15.88;100.00;98981.00;10215945;23;19924;-77
2022/10/20 16:49:40;;;;;;;;;;;;;;;15.88;100.00;98975.75;10248892;23;19982;-78
2022/10/20 16:53:41;;;;;;;;;;;;;;;15.88;100.00;98960.06;10248457;23;19926;-78
2022/10/20 16:57:42;;;;;;;;;;;;;;;15.88;100.00;98953.06;10217509;23;19931;-77
2022/10/20 17:01:44;;;;;;;;;;;;;;;15.88;100.00;98960.91;10267443;23;19923;-77
2022/10/20 17:05:52;;;;;;;;;;;;;;;15.86;100.00;98960.09;10272018;23;20351;-77
2022/10/20 17:09:53;;;;;;;;;;;;;;;15.87;100.00;98958.34;10247219;23;20009;-77
2022/10/20 17:13:55;;;;;;;;;;;;;;;15.86;100.00;98969.72;10248066;23;19978;-78
2022/10/20 17:17:56;;;;;;;;;;;;;;;15.85;100.00;98960.16;10243157;23;19924;-78
2022/10/20 17:21:57;;;;;;;;;;;;;;;15.84;100.00;98946.22;10277201;23;19978;-78
2022/10/20 17:26:01;;;;;;;;;;;;;;;15.82;100.00;98962.88;10276764;23;19947;-78
2022/10/20 17:30:02;;;;;;;;;;;;;;;15.80;100.00;98968.16;10247805;23;20001;-78
2022/10/20 17:34:04;;;;;;;;;;;;;;;15.75;100.00;98950.88;10249065;23;20323;-78
2022/10/20 17:38:05;;;;;;;;;;;;;;;15.67;100.00;98959.00;10275102;23;20251;-78
2022/10/20 17:42:07;;;;;;;;;;;;;;;15.61;100.00;98964.41;10248919;23;19927;-78
2022/10/20 17:46:10;;;;;;;;;;;;;;;15.53;100.00;98955.91;10242892;23;20324;-79
2022/10/20 17:50:12;;;;;;;;;;;;;;;15.44;100.00;98954.47;10275007;23;20295;-78
2022/10/20 17:54:14;;;;;;;;;;;;;;;15.39;100.00;98956.34;10249838;23;20721;-77
2022/10/20 17:58:15;;;;;;;;;;;;;;;15.30;100.00;98954.03;10248911;23;19927;-78
2022/10/20 18:02:18;;;;;;;;;;;;;;;15.26;100.00;98960.22;10243141;23;20627;-79
2022/10/20 18:06:20;;;;;;;;;;;;;;;15.22;100.00;98962.06;10250463;23;19985;-78
2022/10/20 18:10:22;;;;;;;;;;;;;;;15.19;100.00;98953.47;10250227;23;19950;-78
2022/10/20 18:14:23;;;;;;;;;;;;;;;15.17;100.00;98957.91;10277734;23;19984;-79
2022/10/20 18:18:24;;;;;;;;;;;;;;;15.15;100.00;98951.88;10243711;23;19990;-79
2022/10/20 18:22:26;;;;;;;;;;;;;;;15.15;100.00;98936.16;10227043;23;19924;-79
2022/10/20 18:26:27;;;;;;;;;;;;;;;15.12;100.00;98929.28;10276858;23;19974;-80
2022/10/20 18:30:29;;;;;;;;;;;;;;;15.10;100.00;98929.34;10244581;23;20239;-79
2022/10/20 18:34:30;;;;;;;;;;;;;;;15.08;100.00;98925.91;10227060;23;19920;-79
2022/10/20 18:38:34;;;;;;;;;;;;;;;15.07;100.00;98916.31;10251809;23;19928;-79
2022/10/20 18:42:35;;;;;;;;;;;;;;;15.06;100.00;98905.91;10252137;23;19969;-79
2022/10/20 18:46:38;;;;;;;;;;;;;;;15.04;100.00;98905.97;10245240;23;20658;-78
2022/10/20 18:50:41;;;;;;;;;;;;;;;15.00;100.00;98900.88;10226203;23;19935;-79
2022/10/20 18:54:42;;;;;;;;;;;;;;;14.98;100.00;98887.84;10227069;23;19978;-79
2022/10/20 18:59:07;;;;;;;;;;;;;;;14.97;100.00;98895.75;10226672;23;19927;-80
2022/10/20 19:03:09;;;;;;;;;;;;;;;14.96;100.00;98907.09;10207325;23;19923;-80
2022/10/20 19:07:10;;;;;;;;;;;;;;;14.96;100.00;98905.34;10260512;23;19963;-80
2022/10/20 19:11:12;;;;;;;;;;;;;;;14.94;100.00;98894.09;10231345;23;19977;-80
2022/10/20 19:15:14;;;;;;;;;;;;;;;14.91;100.00;98893.31;10248171;23;19950;-79
2022/10/20 19:19:15;;;;;;;;;;;;;;;14.89;100.00;98903.81;10254244;23;19920;-80
2022/10/20 19:23:16;;;;;;;;;;;;;;;14.89;100.00;98911.63;10278765;23;19998;-79
2022/10/20 19:27:18;;;;;;;;;;;;;;;14.89;100.00;98911.63;10254390;23;19920;-79
2022/10/20 19:31:30;;;;;;;;;;;;;;;14.88;100.00;98914.31;10248195;23;20003;-80
2022/10/20 19:35:31;;;;;;;;;;;;;;;14.87;100.00;98912.59;10254310;23;20003;-80
2022/10/20 19:39:35;;;;;;;;;;;;;;;14.85;100.00;98896.09;10258682;23;19942;-80
2022/10/20 19:43:37;;;;;;;;;;;;;;;14.85;100.00;98896.09;10284326;23;20002;-79
2022/10/20 19:47:39;;;;;;;;;;;;;;;14.85;100.00;98902.19;10272773;23;19928;-80
2022/10/20 19:51:40;;;;;;;;;;;;;;;14.87;100.00;98896.91;10254482;23;19927;-79
2022/10/20 19:55:44;;;;;;;;;;;;;;;14.86;100.00;98885.59;10253415;23;19928;-80
2022/10/20 19:59:46;;;;;;;;;;;;;;;14.88;100.00;98875.09;10281284;23;20007;-80
2022/10/20 20:03:47;;;;;;;;;;;;;;;14.88;100.00;98868.09;10247199;23;19999;-80
2022/10/20 20:07:49;;;;;;;;;;;;;;;14.88;100.00;98855.03;10280551;23;19991;-80
2022/10/20 20:16:56;;;;;;;;;;;;;;;14.90;100.00;98852.38;10301088;23;19908;-81
2022/10/20 20:21:56;;;;;;;;;;;;;;;14.87;100.00;98842.88;10209736;23;20368;-81
2022/10/20 20:26:21;;;;;;;;;;;;;;;14.89;100.00;98843.69;10164580;23;19928;-81
2022/10/20 20:32:17;;;;;;;;;;;;;;;14.93;100.00;98857.53;10120065;23;19913;-81
2022/10/20 20:37:48;;;;;;;;;;;;;;;14.92;100.00;98832.28;10112217;23;19917;-81
2022/10/20 20:43:44;;;;;;;;;;;;;;;14.95;100.00;98856.56;9998658;23;19979;-81
2022/10/20 20:48:52;;;;;;;;;;;;;;;14.95;100.00;98867.03;9978056;23;19961;-81
2022/10/20 20:58:19;;;;;;;;;;;;;;;14.93;100.00;98868.84;10273811;23;19924;-80
2022/10/20 21:04:00;;;;;;;;;;;;;;;14.93;100.00;98878.44;10255142;23;19956;-80
2022/10/20 21:08:55;;;;;;;;;;;;;;;14.92;100.00;98905.50;10241209;23;19924;-80
2022/10/20 21:13:34;;;;;;;;;;;;;;;14.88;100.00;98924.75;10258497;23;19955;-80
2022/10/20 21:18:24;;;;;;;;;;;;;;;14.91;100.00;98946.47;10165362;23;19921;-81
2022/10/20 21:44:39;;;;;;;;;;;;;;;14.93;100.00;98981.25;10213253;23;19928;-80
2022/10/20 21:48:46;;;;;;;;;;;;;;;14.94;100.00;99003.03;10252222;23;19919;-79
2022/10/20 21:52:48;;;;;;;;;;;;;;;14.95;100.00;99004.75;10251297;23;20526;-78
2022/10/20 21:56:50;;;;;;;;;;;;;;;14.93;100.00;99010.00;10250970;23;19928;-78
2022/10/20 22:00:57;;;;;;;;;;;;;;;14.91;100.00;99019.66;10245823;23;19923;-79
2022/10/20 22:05:01;;;;;;;;;;;;;;;14.90;100.00;99032.75;10207800;23;20327;-79
2022/10/20 22:09:23;;;;;;;;;;;;;;;14.88;100.00;98953.50;10263033;23;19924;-79
2022/10/20 22:14:03;;;;;;;;;;;;;;;14.87;100.00;98896.91;8547928;27;20375;-78
2022/10/20 22:18:04;;;;;;;;;;;;;;;14.86;100.00;98930.03;8466356;27;20025;-78
2022/10/20 22:22:05;;;;;;;;;;;;;;;14.82;100.00;98915.34;8458427;28;19936;-78
2022/10/20 22:26:07;;;;;;;;;;;;;;;14.82;100.00;98917.97;8452623;28;19971;-78
2022/10/20 22:30:09;;;;;;;;;;;;;;;14.78;100.00;98927.66;8453349;28;19997;-78
2022/10/20 22:34:11;;;;;;;;;;;;;;;14.73;100.00;98892.13;8437240;28;19928;-78
2022/10/20 22:38:12;;;;;;;;;;;;;;;14.71;100.00;98891.28;8419369;28;20000;-78
2022/10/20 22:42:13;;;;;;;;;;;;;;;14.69;100.00;98896.53;8442205;28;19935;-78
2022/10/20 22:46:15;;;;;;;;;;;;;;;14.68;100.00;98907.91;8431715;28;19932;-78
2022/10/20 22:50:16;;;;;;;;;;;;;;;14.64;100.00;98908.03;8436153;28;20598;-78
2022/10/20 22:54:18;;;;;;;;;;;;;;;14.62;100.00;98915.06;8438567;28;19938;-78
2022/10/20 22:58:20;;;;;;;;;;;;;;;14.58;100.00;98923.91;8413848;28;19993;-78
2022/10/20 23:02:22;;;;;;;;;;;;;;;14.54;100.00;98927.47;8433449;28;20382;-78
2022/10/20 23:06:24;;;;;;;;;;;;;;;14.50;100.00;98937.16;8424001;28;20287;-79
2022/10/20 23:10:26;;;;;;;;;;;;;;;14.47;100.00;98948.56;8438760;28;20348;-78
2022/10/20 23:14:27;;;;;;;;;;;;;;;14.47;100.00;98951.16;8432483;28;20576;-79
2022/10/20 23:18:29;;;;;;;;;;;;;;;14.44;100.00;98940.81;8435246;28;19929;-78
2022/10/20 23:22:30;;;;;;;;;;;;;;;14.43;100.00;98951.25;8429077;28;19933;-79
2022/10/20 23:26:31;;;;;;;;;;;;;;;14.43;100.00;98954.75;8399235;28;19939;-79
2022/10/20 23:30:33;;;;;;;;;;;;;;;14.45;100.00;98959.94;8407469;28;20001;-79
2022/10/20 23:34:34;;;;;;;;;;;;;;;14.44;100.00;98956.47;8799389;22;20801;-78
2022/10/20 23:38:36;;;;;;;;;;;;;;;14.43;100.00;98946.94;8389293;28;19928;-78
2022/10/20 23:42:37;;;;;;;;;;;;;;;14.41;100.00;98938.25;8377724;28;19924;-78
2022/10/20 23:46:38;;;;;;;;;;;;;;;14.41;100.00;98903.44;8376977;28;19928;-78
2022/10/20 23:50:41;;;;;;;;;;;;;;;14.41;100.00;98887.75;8420509;28;19981;-78
2022/10/20 23:54:42;;;;;;;;;;;;;;;14.39;100.00;98860.84;8416803;28;19932;-78
2022/10/20 23:58:45;;;;;;;;;;;;;;;14.39;100.00;98826.88;8400976;28;19928;-78
